De Peyster, NY (13633)

7:52 PM EST on December 09, 2016 (GMT -0500)
3650 CR-6 Big Bay Blacklake NY 13646 | | Change Station

Elev 282 ft 44.54 °N, 75.57 °W | Updated 7 minutes ago

Partly Cloudy
Partly Cloudy
21.5 °F
Feels Like 13 °F
N
7.0
Wind Variable Wind from NW
Gusts 7.0 mph

Today
High -- | Low -- °F
--% Chance of Precip.
Yesterday
High -- | Low -- °F
Precip. -- in
Pressure 30.26 in
Visibility 10.0 miles
Clouds Clear
Windchill 13 °F
Dew Point 12 °F
Humidity 66%
Rainfall 0.00 in
Snow Depth Not available.
7:26 AM 4:22 PM
Waxing Gibbous, 78% visible
METAR KOGS 100035Z AUTO 32008KT 10SM CLR M06/M10 A3026 RMK AO2 T10571105 TSNO
Pressure 30.26 in
Visibility 10.0 miles
Clouds Clear
Windchill 13 °F
Dew Point 12 °F
Humidity 66%
Rainfall 0.00 in
Snow Depth Not available.
7:26 AM 4:22 PM
Waxing Gibbous, 78% visible
METAR KOGS 100035Z AUTO 32008KT 10SM CLR M06/M10 A3026 RMK AO2 T10571105 TSNO

10-Day Weather Forecast

Almanac

Astronomy

Dec. 09, 2016 Rise Set
Actual Time
Civil Twilight
Nautical Twilight
Astronomical Twilight
Moon
Length of Visible Light
Length of Day
Tomorrow will be .
, % of the Moon is Illuminated

Today's Extremes

State Highs State Lows

Community

WunderPhotos

Upload Photos

1,956,534 photos uploaded!

WunderBlog® & News

Nearby

Air Quality

  Air Quality AQ Index Pollutant
Not available.

Snow Depth

Station Depth Elevation

Earthquake Activity

City Distance Mag. Time & Date
Minimum magnitude displayed is 2.5.

Coastal Water Temperatures

Place Temperature

Stations

Nearby Weather Stations

Station Location Temp. Windchill Dew Point Humidity Wind Precip. Elev Updated Type
                   

Watches & Warnings

There are currently no watches in effect.